Time;durP1;ratioP1;P1;durP2;ratioP2;P2;SDS_P1;SDS_P2;PMS_P1;PMS_P2;Temp;Humidity;BMP_temperature;BMP_pressure;BME280_temperature;BME280_humidity;BME280_pressure;Samples;Min_cycle;Max_cycle;Signal;HPM_P1;HPM_P2
2022/09/29 00:00:29;;;;;;;4.63;3.33;;;7.00;99.90;;;;;;5003559;28;20455;-92
2022/09/29 00:02:55;;;;;;;5.68;3.60;;;5.90;99.90;;;;;;5023420;28;20049;-91
2022/09/29 00:05:21;;;;;;;11.05;3.38;;;6.60;99.90;;;;;;5008852;28;20479;-91
2022/09/29 00:07:47;;;;;;;4.85;3.15;;;5.90;99.90;;;;;;5018127;28;20127;-90
2022/09/29 00:10:12;;;;;;;5.70;3.03;;;7.00;99.90;;;;;;5001208;28;20083;-92
2022/09/29 00:12:39;;;;;;;4.05;3.25;;;6.60;99.90;;;;;;5017502;28;20453;-91
2022/09/29 00:15:06;;;;;;;4.00;2.83;;;6.00;99.90;;;;;;5032347;28;20045;-90
2022/09/29 00:17:32;;;;;;;5.70;2.63;;;6.00;99.90;;;;;;5032201;28;20049;-92
2022/09/29 00:19:58;;;;;;;7.32;3.20;;;6.90;99.90;;;;;;5014409;28;20080;-92
2022/09/29 00:22:23;;;;;;;3.78;2.75;;;7.20;99.90;;;;;;4999140;28;20091;-92
2022/09/29 00:24:49;;;;;;;5.55;3.25;;;6.00;99.90;;;;;;4998860;28;20183;-89
2022/09/29 00:27:18;;;;;;;7.07;4.03;;;6.00;99.90;;;;;;5031159;28;20044;-90
2022/09/29 00:29:45;;;;;;;5.03;4.38;;;6.00;99.90;;;;;;5014821;28;20044;-92
2022/09/29 00:32:10;;;;;;;7.88;4.32;;;6.10;99.90;;;;;;5014062;28;20171;-92
2022/09/29 00:34:36;;;;;;;8.02;4.95;;;7.10;99.90;;;;;;4999179;28;20077;-92
2022/09/29 00:37:02;;;;;;;7.53;5.57;;;6.20;99.90;;;;;;5013905;28;20055;-92
2022/09/29 00:39:28;;;;;;;9.85;5.63;;;6.30;99.90;;;;;;5014919;28;20063;-91
2022/09/29 00:41:53;;;;;;;11.23;5.68;;;6.30;99.90;;;;;;4998235;28;20045;-92
2022/09/29 00:44:19;;;;;;;7.75;5.47;;;6.50;99.90;;;;;;5031086;28;20405;-92
2022/09/29 00:46:47;;;;;;;11.38;5.53;;;7.10;99.90;;;;;;5030987;28;20044;-92
2022/09/29 00:49:19;;;;;;;9.38;5.63;;;6.60;99.90;;;;;;5013698;28;20044;-92
2022/09/29 00:52:11;;;;;;;9.32;5.50;;;6.60;99.90;;;;;;5031496;28;20084;-92
2022/09/29 00:55:21;;;;;;;6.60;4.43;;;6.60;99.90;;;;;;5022829;28;20452;-91
2022/09/29 00:58:09;;;;;;;3.72;3.40;;;6.60;99.90;;;;;;5013620;28;20045;-91
2022/09/29 01:00:35;;;;;;;4.28;3.42;;;6.50;99.90;;;;;;5031496;28;20558;-92
2022/09/29 01:03:07;;;;;;;6.22;3.72;;;6.50;99.90;;;;;;5030497;28;20073;-91
2022/09/29 01:05:39;;;;;;;5.68;3.45;;;6.40;99.90;;;;;;5013441;28;20041;-92
2022/09/29 01:08:22;;;;;;;8.65;3.60;;;6.30;99.90;;;;;;5014104;28;20053;-91
2022/09/29 01:10:50;;;;;;;7.18;3.17;;;6.30;99.90;;;;;;5030050;28;20440;-92
2022/09/29 01:13:17;;;;;;;4.15;3.03;;;7.40;99.90;;;;;;5014413;28;20052;-92
2022/09/29 01:15:43;;;;;;;4.30;3.15;;;6.10;99.90;;;;;;5013927;28;20131;-92
2022/09/29 01:18:09;;;;;;;5.13;3.35;;;6.10;99.90;;;;;;5014266;28;20127;-93
2022/09/29 01:20:45;;;;;;;7.03;3.60;;;7.10;99.90;;;;;;5013673;28;20041;-90
2022/09/29 01:23:58;;;;;;;6.28;4.57;;;6.10;99.90;;;;;;5030159;28;20160;-91
2022/09/29 01:26:36;;;;;;;7.32;5.55;;;6.00;99.90;;;;;;5008873;28;20083;-92
2022/09/29 01:29:07;;;;;;;8.02;5.97;;;6.00;99.90;;;;;;5013341;28;20051;-91
2022/09/29 01:31:55;;;;;;;9.15;6.45;;;6.10;99.90;;;;;;5013220;28;20053;-93
2022/09/29 01:34:49;;;;;;;9.55;6.50;;;7.00;99.90;;;;;;5030482;28;20056;-92
2022/09/29 01:37:29;;;;;;;6.20;5.57;;;6.20;99.90;;;;;;5022434;28;20504;-92
2022/09/29 01:40:15;;;;;;;9.48;6.47;;;6.30;99.90;;;;;;5029868;28;20049;-93
2022/09/29 01:42:57;;;;;;;8.70;6.32;;;6.30;99.90;;;;;;5013805;28;20049;-92
2022/09/29 01:45:33;;;;;;;8.75;5.82;;;6.40;99.90;;;;;;5029122;28;20044;-92
2022/09/29 01:48:04;;;;;;;8.32;6.18;;;6.40;99.90;;;;;;5014071;28;20036;-92
2022/09/29 01:50:48;;;;;;;8.13;6.07;;;6.30;99.90;;;;;;5029786;28;20052;-93
2022/09/29 01:53:24;;;;;;;12.43;6.40;;;6.30;99.90;;;;;;5029229;28;20628;-92
2022/09/29 01:55:52;;;;;;;8.60;6.57;;;7.40;99.90;;;;;;5030238;28;20078;-93
2022/09/29 01:58:35;;;;;;;14.50;7.38;;;6.30;99.90;;;;;;5028791;28;20144;-93
2022/09/29 02:01:06;;;;;;;12.25;7.07;;;6.30;99.90;;;;;;5029773;28;20404;-92
2022/09/29 02:03:40;;;;;;;10.63;8.07;;;7.30;99.90;;;;;;5029695;28;20077;-93
2022/09/29 02:06:22;;;;;;;11.23;8.43;;;6.40;99.90;;;;;;5012428;28;20136;-92
2022/09/29 02:08:54;;;;;;;11.18;8.82;;;6.50;99.90;;;;;;5030400;28;20131;-92
2022/09/29 02:11:20;;;;;;;15.40;9.20;;;7.60;99.90;;;;;;5028800;28;20115;-91
2022/09/29 02:14:37;;;;;;;11.73;8.85;;;6.70;99.90;;;;;;5029593;28;20092;-92
2022/09/29 02:17:35;;;;;;;15.20;8.40;;;6.70;99.90;;;;;;4980781;28;20049;-91
2022/09/29 02:20:02;;;;;;;11.00;8.82;;;6.80;99.90;;;;;;5028594;28;20052;-90
2022/09/29 02:22:28;;;;;;;11.43;8.82;;;6.80;99.90;;;;;;5029620;28;20057;-90
2022/09/29 02:24:57;;;;;;;13.88;9.75;;;6.80;99.90;;;;;;5012482;28;20373;-92
2022/09/29 02:27:25;;;;;;;10.45;9.23;;;7.50;99.90;;;;;;5028700;28;20052;-91
2022/09/29 02:29:51;;;;;;;9.55;8.32;;;6.80;99.90;;;;;;5013461;28;20125;-91
2022/09/29 02:32:18;;;;;;;10.00;8.88;;;6.80;99.90;;;;;;5028023;28;20049;-91
2022/09/29 02:34:46;;;;;;;12.30;8.93;;;6.80;99.90;;;;;;4997039;28;20127;-92
2022/09/29 02:37:11;;;;;;;10.60;8.75;;;6.80;99.90;;;;;;5028668;28;20037;-90
2022/09/29 02:39:49;;;;;;;10.55;9.35;;;8.10;99.90;;;;;;5013110;28;20049;-92
2022/09/29 02:42:33;;;;;;;11.32;8.13;;;6.70;99.90;;;;;;5029139;28;20044;-92
2022/09/29 02:45:36;;;;;;;11.32;9.32;;;6.70;99.90;;;;;;5028111;28;20186;-91
2022/09/29 02:48:04;;;;;;;8.60;5.60;;;6.70;99.90;;;;;;5012459;28;20444;-93
2022/09/29 02:50:54;;;;;;;13.35;8.90;;;6.60;99.90;;;;;;5029163;28;20053;-92
2022/09/29 02:53:41;;;;;;;11.10;8.73;;;6.60;99.90;;;;;;5029085;28;20061;-91
2022/09/29 02:56:19;;;;;;;11.88;9.70;;;6.60;99.90;;;;;;5029836;28;20139;-91
2022/09/29 02:58:58;;;;;;;11.65;8.43;;;6.60;99.90;;;;;;5029002;28;20388;-92
2022/09/29 03:01:24;;;;;;;12.02;9.13;;;6.60;99.90;;;;;;5012010;28;20047;-91
2022/09/29 03:03:50;;;;;;;12.05;9.10;;;7.10;99.90;;;;;;4995989;28;20037;-93
2022/09/29 03:06:20;;;;;;;15.73;9.55;;;6.60;99.90;;;;;;5011617;28;20447;-90
2022/09/29 03:08:46;;;;;;;11.77;9.32;;;6.60;99.90;;;;;;5012754;28;20092;-92
2022/09/29 03:11:11;;;;;;;11.00;8.95;;;7.60;99.90;;;;;;5011908;28;20084;-92
2022/09/29 03:13:37;;;;;;;11.38;8.52;;;6.60;99.90;;;;;;5012781;28;20045;-91
2022/09/29 03:16:02;;;;;;;13.18;9.15;;;7.20;99.90;;;;;;4995488;28;20041;-92
2022/09/29 03:18:28;;;;;;;11.65;9.00;;;6.50;99.90;;;;;;5012021;28;20041;-90
2022/09/29 03:20:54;;;;;;;14.02;8.52;;;6.40;99.90;;;;;;5011906;28;20131;-92
2022/09/29 03:23:20;;;;;;;11.57;8.18;;;6.80;99.90;;;;;;5011823;28;20073;-93
2022/09/29 03:25:46;;;;;;;11.48;8.63;;;6.40;99.90;;;;;;5012915;28;20052;-91
2022/09/29 03:28:11;;;;;;;15.93;9.27;;;6.30;99.90;;;;;;5011555;28;20073;-90
2022/09/29 03:30:37;;;;;;;12.70;9.60;;;6.40;99.90;;;;;;5016049;28;20064;-92
2022/09/29 03:33:03;;;;;;;14.55;9.75;;;6.30;99.90;;;;;;5032351;28;20461;-91
2022/09/29 03:35:28;;;;;;;13.18;10.20;;;6.40;99.90;;;;;;5032303;28;20131;-92
2022/09/29 03:37:58;;;;;;;12.15;9.90;;;7.00;99.90;;;;;;4999204;28;20047;-91
2022/09/29 03:40:24;;;;;;;15.88;10.32;;;6.40;99.90;;;;;;4998853;28;20056;-91
2022/09/29 03:42:49;;;;;;;12.52;9.02;;;6.40;99.90;;;;;;4999577;28;20045;-91
2022/09/29 03:45:15;;;;;;;10.40;7.90;;;6.40;99.90;;;;;;4998767;28;20095;-91
2022/09/29 03:47:41;;;;;;;11.32;7.95;;;6.30;99.90;;;;;;4999887;28;20037;-93
2022/09/29 03:50:07;;;;;;;9.30;7.30;;;7.50;99.90;;;;;;4998581;28;20041;-93
2022/09/29 03:52:32;;;;;;;8.85;7.63;;;6.20;99.90;;;;;;5032259;28;20036;-93
2022/09/29 03:54:58;;;;;;;10.68;7.63;;;6.20;99.90;;;;;;5015322;28;20546;-92
2022/09/29 03:57:24;;;;;;;12.02;8.93;;;7.30;99.90;;;;;;4999963;28;20033;-91
2022/09/29 03:59:49;;;;;;;12.68;9.52;;;6.10;99.90;;;;;;5033395;28;20484;-91
2022/09/29 04:02:17;;;;;;;12.63;10.02;;;6.00;99.90;;;;;;5015897;28;20045;-91
2022/09/29 04:04:43;;;;;;;13.45;9.48;;;6.20;99.90;;;;;;5002056;28;20037;-92
2022/09/29 04:07:08;;;;;;;14.38;9.85;;;6.10;99.90;;;;;;4984995;28;20041;-93
2022/09/29 04:09:34;;;;;;;12.18;9.23;;;7.00;99.90;;;;;;4984857;28;20045;-91
2022/09/29 04:12:00;;;;;;;14.32;8.80;;;5.00;99.90;;;;;;5000966;28;20048;-91
2022/09/29 04:14:25;;;;;;;14.68;8.68;;;6.10;99.90;;;;;;5017417;28;20052;-93
2022/09/29 04:16:51;;;;;;;9.82;7.43;;;6.00;99.90;;;;;;5002959;28;20043;-91
2022/09/29 04:19:17;;;;;;;11.93;8.48;;;6.00;99.90;;;;;;5032856;28;20044;-91
2022/09/29 04:21:42;;;;;;;10.98;7.55;;;6.00;99.90;;;;;;4982984;28;20045;-92
2022/09/29 04:24:08;;;;;;;10.63;7.80;;;5.90;99.90;;;;;;5015117;28;20138;-93
2022/09/29 04:26:34;;;;;;;8.75;6.75;;;5.90;99.90;;;;;;4983399;28;20037;-94
2022/09/29 04:28:59;;;;;;;8.65;7.40;;;7.00;99.90;;;;;;4998558;28;20037;-93
2022/09/29 04:31:25;;;;;;;11.48;8.02;;;6.50;99.90;;;;;;5014630;28;20132;-93
2022/09/29 04:33:51;;;;;;;11.23;6.93;;;6.70;99.90;;;;;;5014431;28;20088;-92
2022/09/29 04:36:16;;;;;;;9.05;6.22;;;5.70;99.90;;;;;;5014343;28;20045;-92
2022/09/29 04:38:42;;;;;;;9.38;7.35;;;5.70;99.90;;;;;;5015282;28;20053;-92
2022/09/29 04:41:08;;;;;;;8.13;6.22;;;6.10;99.90;;;;;;4979902;28;20075;-90
2022/09/29 04:43:34;;;;;;;15.13;6.60;;;5.60;99.90;;;;;;5014766;28;20041;-92
2022/09/29 04:46:05;;;;;;;11.80;7.90;;;5.60;99.90;;;;;;5013649;28;20041;-91
2022/09/29 04:48:30;;;;;;;10.45;8.00;;;5.50;99.90;;;;;;5014205;28;20132;-91
2022/09/29 04:50:56;;;;;;;10.63;8.20;;;6.70;99.90;;;;;;4997887;28;20140;-91
2022/09/29 04:53:22;;;;;;;12.27;9.30;;;5.60;99.90;;;;;;5030669;28;20478;-92
2022/09/29 04:55:47;;;;;;;14.05;8.77;;;6.60;99.90;;;;;;4981502;28;20049;-88
2022/09/29 04:58:14;;;;;;;11.30;9.38;;;5.60;99.90;;;;;;5028813;28;20077;-86
2022/09/29 05:00:39;;;;;;;16.35;11.25;;;5.70;99.90;;;;;;5029759;28;20048;-86
2022/09/29 05:03:05;;;;;;;13.32;9.23;;;5.70;99.90;;;;;;5028990;28;20422;-87
2022/09/29 05:05:32;;;;;;;15.82;9.27;;;6.80;99.90;;;;;;4997197;28;20048;-87
2022/09/29 05:07:58;;;;;;;12.48;9.23;;;5.70;99.90;;;;;;4979827;28;20041;-86
2022/09/29 05:10:25;;;;;;;15.15;10.35;;;5.70;99.90;;;;;;4996278;28;20041;-86
2022/09/29 05:12:51;;;;;;;14.98;10.98;;;5.70;99.90;;;;;;5013168;28;20484;-84
2022/09/29 05:15:18;;;;;;;17.67;11.27;;;6.70;99.90;;;;;;4980490;28;20396;-85
2022/09/29 05:17:44;;;;;;;16.15;11.60;;;5.70;99.90;;;;;;5013155;28;20120;-85
2022/09/29 05:20:10;;;;;;;19.80;14.65;;;5.90;99.90;;;;;;5012193;28;20133;-87
2022/09/29 05:22:36;;;;;;;21.30;13.73;;;5.80;99.90;;;;;;5012718;28;20041;-86
2022/09/29 05:25:02;;;;;;;18.40;11.73;;;7.00;99.90;;;;;;5029461;28;20122;-87
2022/09/29 05:27:27;;;;;;;20.30;14.07;;;5.90;99.90;;;;;;4996481;28;20131;-92
2022/09/29 05:29:53;;;;;;;18.55;13.68;;;5.90;99.90;;;;;;4998121;28;20132;-93
2022/09/29 05:32:19;;;;;;;20.63;13.48;;;6.00;99.90;;;;;;5012210;28;20056;-89
2022/09/29 05:34:44;;;;;;;20.30;13.32;;;6.60;99.90;;;;;;5013144;28;20063;-88
2022/09/29 05:37:10;;;;;;;21.58;13.90;;;6.60;99.90;;;;;;4995889;28;20470;-87
2022/09/29 05:39:36;;;;;;;20.52;13.52;;;6.90;99.90;;;;;;4996208;28;20056;-86
2022/09/29 05:42:08;;;;;;;19.25;13.80;;;6.00;99.90;;;;;;5011989;28;20049;-85
2022/09/29 05:44:34;;;;;;;17.15;12.88;;;6.10;99.90;;;;;;5012147;28;20044;-87
2022/09/29 05:46:59;;;;;;;20.23;12.93;;;6.00;99.90;;;;;;5012568;28;20055;-85
2022/09/29 05:49:25;;;;;;;23.73;12.57;;;6.10;99.90;;;;;;5011687;28;20581;-87
2022/09/29 05:51:51;;;;;;;23.52;13.52;;;6.10;99.90;;;;;;4996301;28;20040;-87
2022/09/29 05:54:17;;;;;;;19.67;13.70;;;6.40;99.90;;;;;;5012623;28;20128;-86
2022/09/29 05:56:43;;;;;;;18.88;13.77;;;6.10;99.90;;;;;;5012307;28;20132;-87
2022/09/29 05:59:09;;;;;;;17.88;12.48;;;6.20;99.90;;;;;;5028200;28;20045;-87
2022/09/29 06:01:35;;;;;;;21.77;13.60;;;6.20;99.90;;;;;;5011468;28;20048;-87
2022/09/29 06:04:01;;;;;;;15.27;12.07;;;6.20;99.90;;;;;;4996031;28;20124;-87
2022/09/29 06:06:28;;;;;;;19.73;12.45;;;7.40;99.90;;;;;;5010977;28;20535;-87
2022/09/29 06:08:56;;;;;;;17.10;12.40;;;6.20;99.90;;;;;;5012665;28;20040;-87
2022/09/29 06:11:24;;;;;;;19.23;13.27;;;6.90;99.90;;;;;;5011895;28;20151;-87
2022/09/29 06:13:51;;;;;;;17.33;12.77;;;6.20;99.90;;;;;;5029541;28;20048;-87
2022/09/29 06:16:19;;;;;;;17.67;12.80;;;6.20;99.90;;;;;;4979648;28;20091;-88
2022/09/29 06:18:45;;;;;;;23.60;13.25;;;6.20;99.90;;;;;;5011894;28;20049;-87
2022/09/29 06:21:34;;;;;;;22.02;13.75;;;6.30;99.90;;;;;;4995544;28;20055;-87
2022/09/29 06:24:00;;;;;;;20.23;12.70;;;6.30;99.90;;;;;;5011437;28;20262;-87
2022/09/29 06:26:27;;;;;;;17.17;11.93;;;6.30;99.90;;;;;;4996168;28;20380;-88
2022/09/29 06:28:53;;;;;;;15.05;11.68;;;6.90;99.90;;;;;;5012294;28;20133;-87
2022/09/29 06:31:22;;;;;;;22.48;13.32;;;6.30;99.90;;;;;;5011302;28;20041;-87
2022/09/29 06:33:47;;;;;;;22.98;14.27;;;7.60;99.90;;;;;;5011607;28;20556;-88
2022/09/29 06:39:07;;;;;;;17.10;12.82;;;7.50;99.90;;;;;;5028324;28;20075;-87
2022/09/29 06:41:34;;;;;;;22.80;12.23;;;7.30;99.90;;;;;;5011354;28;20053;-88
2022/09/29 06:44:00;;;;;;;17.60;13.18;;;6.50;99.90;;;;;;4995511;28;20045;-88
2022/09/29 06:46:26;;;;;;;22.45;14.27;;;6.60;99.90;;;;;;5011092;28;20041;-88
2022/09/29 06:48:53;;;;;;;24.92;14.00;;;6.60;99.90;;;;;;5011301;28;20041;-88
2022/09/29 06:51:21;;;;;;;19.23;13.25;;;6.70;99.90;;;;;;5011716;28;20048;-89
2022/09/29 06:53:48;;;;;;;20.17;13.85;;;6.80;99.90;;;;;;4994847;28;20393;-88
2022/09/29 06:56:14;;;;;;;17.23;14.25;;;7.90;99.90;;;;;;5012159;28;20037;-88
2022/09/29 06:58:40;;;;;;;20.52;14.65;;;6.80;99.90;;;;;;4994661;28;20128;-89
2022/09/29 07:01:06;;;;;;;22.52;15.25;;;6.80;99.90;;;;;;4995097;28;20064;-89
2022/09/29 07:03:32;;;;;;;20.88;13.73;;;8.10;99.90;;;;;;4995324;28;20048;-89
2022/09/29 07:06:06;;;;;;;23.38;15.93;;;7.30;99.90;;;;;;5015147;28;20119;-88
2022/09/29 07:08:34;;;;;;;21.90;15.70;;;7.10;99.90;;;;;;4999918;28;20064;-88
2022/09/29 07:11:01;;;;;;;23.77;16.73;;;8.00;99.90;;;;;;5031198;28;20354;-87
2022/09/29 07:13:28;;;;;;;26.60;17.75;;;7.20;99.90;;;;;;5017563;28;20033;-88
2022/09/29 07:15:53;;;;;;;26.08;16.85;;;7.30;99.90;;;;;;5039755;28;20488;-87
2022/09/29 07:18:19;;;;;;;25.63;16.52;;;7.40;99.90;;;;;;5043595;28;20079;-88
2022/09/29 07:20:45;;;;;;;29.35;17.80;;;7.50;99.90;;;;;;5001609;28;20354;-88
2022/09/29 07:23:11;;;;;;;29.63;17.98;;;7.60;99.90;;;;;;5034454;28;20037;-87
2022/09/29 07:25:36;;;;;;;22.67;17.92;;;8.00;99.90;;;;;;5032354;28;20120;-87
2022/09/29 07:28:02;;;;;;;25.17;17.08;;;7.90;99.90;;;;;;5024293;28;20051;-86
2022/09/29 07:30:28;;;;;;;25.42;15.80;;;8.00;99.90;;;;;;5044443;28;20060;-86
2022/09/29 07:32:54;;;;;;;24.88;17.65;;;8.40;99.90;;;;;;5031821;28;20544;-86
2022/09/29 07:35:21;;;;;;;29.52;17.70;;;8.20;99.90;;;;;;5052458;28;20044;-86
2022/09/29 07:37:53;;;;;;;24.35;17.30;;;8.30;99.90;;;;;;5033255;28;20123;-86
2022/09/29 07:40:23;;;;;;;23.92;17.00;;;9.30;99.90;;;;;;5037846;28;20044;-86
2022/09/29 07:42:50;;;;;;;27.13;16.40;;;9.20;99.90;;;;;;5024391;28;20052;-86
2022/09/29 07:45:16;;;;;;;20.27;15.55;;;8.70;99.90;;;;;;5054456;28;20063;-86
2022/09/29 07:47:42;;;;;;;22.52;16.05;;;8.70;99.90;;;;;;5038951;28;20025;-86
2022/09/29 07:50:08;;;;;;;22.40;15.95;;;8.80;99.90;;;;;;5036995;28;20486;-86
2022/09/29 07:52:34;;;;;;;21.48;16.33;;;8.90;99.90;;;;;;5031031;28;20145;-86
2022/09/29 07:54:59;;;;;;;20.83;15.10;;;9.80;99.90;;;;;;5033831;28;20044;-85
2022/09/29 07:57:25;;;;;;;22.75;15.38;;;9.10;99.90;;;;;;5016998;28;20266;-83
2022/09/29 07:59:53;;;;;;;19.88;14.90;;;9.60;99.90;;;;;;5033117;28;20652;-83
2022/09/29 08:02:19;;;;;;;18.20;13.40;;;9.40;99.90;;;;;;5014604;28;20045;-83
2022/09/29 08:04:45;;;;;;;23.17;14.88;;;9.40;99.90;;;;;;5032360;28;20442;-83
2022/09/29 08:07:11;;;;;;;20.95;13.43;;;9.50;99.90;;;;;;5031583;28;20045;-82
2022/09/29 08:09:36;;;;;;;22.20;14.88;;;9.60;99.90;;;;;;5030873;28;20051;-82
2022/09/29 08:12:02;;;;;;;19.27;14.50;;;9.80;99.90;;;;;;5030396;28;20053;-83
2022/09/29 08:14:28;;;;;;;21.40;15.68;;;9.80;99.90;;;;;;5030605;28;20091;-83
2022/09/29 08:16:54;;;;;;;18.63;15.02;;;10.00;99.90;;;;;;5031218;28;20044;-83
2022/09/29 08:19:20;;;;;;;28.00;14.73;;;10.40;99.90;;;;;;5030359;28;20563;-82
2022/09/29 08:21:48;;;;;;;18.88;15.27;;;10.20;99.90;;;;;;5014230;28;20128;-83
2022/09/29 08:24:16;;;;;;;26.38;16.20;;;10.40;99.90;;;;;;5029843;28;20159;-83
2022/09/29 08:26:42;;;;;;;23.38;15.40;;;10.50;99.90;;;;;;5030784;28;20048;-83
2022/09/29 08:29:08;;;;;;;22.23;15.25;;;10.70;99.90;;;;;;5029984;28;20041;-86
2022/09/29 08:31:36;;;;;;;22.30;15.25;;;10.90;99.90;;;;;;5029847;28;20048;-87
2022/09/29 08:34:01;;;;;;;18.55;14.40;;;11.00;99.90;;;;;;4998079;28;20045;-88
2022/09/29 08:36:27;;;;;;;18.15;14.05;;;11.10;99.90;;;;;;5029654;28;20040;-84
2022/09/29 08:38:55;;;;;;;19.50;14.02;;;11.20;99.90;;;;;;5014200;28;20099;-85
2022/09/29 08:41:27;;;;;;;17.80;13.43;;;11.40;99.90;;;;;;5029790;28;20167;-84
2022/09/29 08:44:03;;;;;;;14.80;9.80;;;11.50;99.90;;;;;;5029980;28;20037;-85
2022/09/29 08:46:58;;;;;;;13.13;8.73;;;11.70;99.90;;;;;;5030136;28;20060;-85
2022/09/29 08:49:35;;;;;;;12.50;10.48;;;11.80;99.90;;;;;;5029497;28;20291;-85
2022/09/29 08:52:09;;;;;;;14.93;10.55;;;11.90;99.90;;;;;;5029906;28;20063;-84
2022/09/29 08:54:40;;;;;;;13.60;10.27;;;12.00;99.90;;;;;;5030538;28;20045;-84
2022/09/29 08:57:10;;;;;;;13.38;9.15;;;12.20;99.90;;;;;;5047804;28;20048;-83
2022/09/29 08:59:36;;;;;;;11.52;8.75;;;12.20;99.90;;;;;;5029759;28;20045;-84
2022/09/29 09:02:17;;;;;;;12.90;9.35;;;12.30;99.90;;;;;;5029172;28;20072;-84
2022/09/29 09:04:48;;;;;;;9.48;7.88;;;12.40;99.90;;;;;;5048057;28;20049;-84
2022/09/29 09:07:34;;;;;;;11.27;8.48;;;12.50;99.90;;;;;;5047268;28;20087;-84
2022/09/29 09:10:25;;;;;;;12.25;7.93;;;12.60;99.90;;;;;;5013656;28;20115;-84
2022/09/29 09:13:04;;;;;;;11.15;8.00;;;12.70;99.90;;;;;;5023012;28;20053;-84
2022/09/29 09:15:39;;;;;;;10.00;7.53;;;13.20;99.90;;;;;;5028910;28;20048;-84
2022/09/29 09:18:36;;;;;;;13.52;8.48;;;12.90;99.90;;;;;;5029169;28;20049;-84
2022/09/29 09:21:17;;;;;;;10.20;7.82;;;13.00;99.90;;;;;;5029541;28;20049;-84
2022/09/29 09:23:51;;;;;;;11.02;7.32;;;13.20;99.90;;;;;;5028501;28;20044;-84
2022/09/29 09:26:18;;;;;;;9.98;7.05;;;13.40;99.90;;;;;;5046837;28;20087;-84
2022/09/29 09:29:03;;;;;;;7.85;6.55;;;13.50;99.90;;;;;;5012354;28;20055;-84
2022/09/29 09:31:40;;;;;;;9.32;6.40;;;13.60;99.90;;;;;;5029356;28;20040;-84
2022/09/29 09:34:18;;;;;;;10.55;6.88;;;13.80;99.90;;;;;;5012792;28;20104;-84
2022/09/29 09:37:13;;;;;;;8.60;6.07;;;13.80;99.90;;;;;;5028344;28;20120;-83
2022/09/29 09:40:01;;;;;;;12.90;7.30;;;13.80;99.90;;;;;;4999787;28;20128;-83
2022/09/29 09:42:32;;;;;;;10.55;5.57;;;13.90;99.90;;;;;;5028960;28;20088;-86
2022/09/29 09:45:03;;;;;;;8.25;6.10;;;13.90;99.90;;;;;;5028000;28;20098;-86
2022/09/29 09:47:39;;;;;;;8.70;5.60;;;14.00;99.90;;;;;;5029041;28;20478;-85
2022/09/29 09:50:14;;;;;;;5.93;4.55;;;14.00;99.90;;;;;;5028417;28;20044;-86
2022/09/29 09:52:50;;;;;;;9.85;4.40;;;14.10;99.90;;;;;;5028327;28;20095;-85
2022/09/29 09:55:19;;;;;;;5.65;4.53;;;14.10;99.90;;;;;;5028565;28;20504;-85
2022/09/29 09:58:11;;;;;;;5.93;4.40;;;14.20;99.90;;;;;;5028215;28;20041;-85
2022/09/29 10:01:06;;;;;;;5.68;4.32;;;14.30;99.90;;;;;;5028887;28;20048;-85
2022/09/29 10:03:33;;;;;;;8.65;4.43;;;14.40;99.90;;;;;;5023304;28;20095;-86
2022/09/29 10:05:59;;;;;;;5.85;3.75;;;14.60;99.90;;;;;;5027897;28;20053;-84
2022/09/29 10:08:38;;;;;;;4.97;3.88;;;14.70;99.90;;;;;;5028943;28;20064;-84
2022/09/29 10:11:17;;;;;;;6.22;4.22;;;14.80;99.90;;;;;;5027471;28;20239;-84
2022/09/29 10:13:44;;;;;;;11.10;3.65;;;15.00;99.90;;;;;;5028626;28;20086;-90
2022/09/29 10:16:15;;;;;;;6.38;4.18;;;15.10;99.90;;;;;;5011998;28;20063;-83
2022/09/29 10:18:45;;;;;;;6.63;3.47;;;15.20;99.90;;;;;;5027995;28;20056;-83
2022/09/29 10:21:42;;;;;;;4.38;2.90;;;15.20;99.90;;;;;;5028363;28;20055;-83
2022/09/29 10:24:26;;;;;;;2.58;1.10;;;14.70;99.90;;;;;;5027786;28;20040;-84
2022/09/29 10:26:55;;;;;;;2.15;1.05;;;15.60;99.90;;;;;;5028041;28;20580;-84
2022/09/29 10:29:41;;;;;;;5.18;1.42;;;15.60;99.90;;;;;;5028442;28;20748;-83
2022/09/29 10:32:26;;;;;;;2.53;1.20;;;15.70;99.90;;;;;;5027393;28;20063;-83
2022/09/29 10:35:02;;;;;;;1.50;1.15;;;15.70;99.90;;;;;;5028626;28;20377;-83
2022/09/29 10:37:34;;;;;;;2.60;1.10;;;15.80;99.90;;;;;;5027512;28;20056;-83
2022/09/29 10:40:16;;;;;;;2.35;1.27;;;15.90;99.90;;;;;;5027401;28;20408;-84
2022/09/29 10:42:45;;;;;;;2.33;0.70;;;16.10;99.90;;;;;;5028483;28;20049;-82
2022/09/29 10:45:20;;;;;;;2.50;0.80;;;16.00;99.90;;;;;;5011221;28;20090;-83
2022/09/29 10:47:59;;;;;;;1.95;0.85;;;16.10;99.90;;;;;;5028405;28;20041;-82
2022/09/29 10:50:26;;;;;;;2.60;1.15;;;16.10;99.90;;;;;;5027654;28;20044;-82
2022/09/29 10:53:02;;;;;;;2.17;0.95;;;16.00;99.90;;;;;;5027863;28;20045;-82
2022/09/29 10:55:31;;;;;;;1.85;0.93;;;15.90;99.90;;;;;;5011679;28;20056;-82
2022/09/29 10:58:23;;;;;;;1.67;0.90;;;16.00;99.90;;;;;;5027333;28;20212;-82
2022/09/29 11:01:06;;;;;;;1.80;0.90;;;16.00;99.90;;;;;;5027675;28;20053;-83
2022/09/29 11:03:34;;;;;;;2.63;0.90;;;15.60;99.90;;;;;;5027934;28;20048;-82
2022/09/29 11:06:08;;;;;;;1.42;0.80;;;15.90;99.90;;;;;;5027466;28;20040;-83
2022/09/29 11:08:57;;;;;;;1.95;1.08;;;16.00;99.90;;;;;;5028115;28;20053;-82
2022/09/29 11:11:29;;;;;;;3.92;1.10;;;16.20;99.90;;;;;;5028174;28;20110;-84
2022/09/29 11:13:56;;;;;;;1.38;1.05;;;16.50;99.90;;;;;;5011117;28;20108;-83
2022/09/29 11:16:36;;;;;;;2.92;1.10;;;16.80;99.90;;;;;;5028056;28;20602;-83
2022/09/29 11:19:08;;;;;;;1.15;0.80;;;17.10;99.90;;;;;;5027047;28;20128;-83
2022/09/29 11:22:12;;;;;;;2.95;0.70;;;17.20;99.90;;;;;;5011790;28;20041;-82
2022/09/29 11:24:55;;;;;;;2.55;0.82;;;17.40;99.90;;;;;;5045524;28;20411;-82
2022/09/29 11:27:31;;;;;;;1.95;0.88;;;17.30;99.90;;;;;;5045596;28;20403;-82
2022/09/29 11:30:09;;;;;;;1.38;0.60;;;17.20;99.90;;;;;;5028111;28;20045;-82
2022/09/29 11:32:50;;;;;;;2.28;0.60;;;16.80;99.90;;;;;;5027380;28;20053;-82
2022/09/29 11:35:18;;;;;;;4.32;1.40;;;16.60;99.90;;;;;;5027818;28;20515;-82
2022/09/29 11:38:11;;;;;;;0.52;0.32;;;16.30;99.90;;;;;;5027104;28;20100;-82
2022/09/29 11:41:01;;;;;;;1.48;0.40;;;16.10;99.90;;;;;;5026777;28;20496;-82
2022/09/29 11:43:54;;;;;;;1.45;0.60;;;15.90;99.90;;;;;;5027834;28;20424;-82
2022/09/29 11:46:39;;;;;;;1.55;0.40;;;15.80;99.90;;;;;;5027505;28;20134;-82
2022/09/29 11:49:22;;;;;;;0.55;0.32;;;15.70;99.90;;;;;;5026851;28;20045;-82
2022/09/29 11:52:14;;;;;;;0.75;0.40;;;15.80;99.90;;;;;;5031047;28;20064;-83
2022/09/29 11:55:02;;;;;;;1.30;0.25;;;16.00;99.90;;;;;;5014262;28;20052;-82
2022/09/29 11:57:27;;;;;;;1.55;0.95;;;16.50;99.90;;;;;;5030166;28;20037;-82
2022/09/29 12:00:13;;;;;;;1.23;0.55;;;16.80;99.90;;;;;;5031405;28;20072;-82
2022/09/29 12:03:06;;;;;;;0.50;0.20;;;17.10;99.90;;;;;;5030350;28;20048;-82
2022/09/29 12:05:51;;;;;;;0.65;0.32;;;17.40;99.90;;;;;;5030789;28;20052;-82
2022/09/29 12:08:44;;;;;;;0.50;0.28;;;17.60;99.90;;;;;;5031001;28;20068;-82
2022/09/29 12:11:41;;;;;;;1.17;0.30;;;17.80;99.90;;;;;;5030812;28;20416;-82
2022/09/29 12:14:20;;;;;;;1.85;0.35;;;18.00;99.90;;;;;;5030400;28;20056;-82
2022/09/29 12:16:56;;;;;;;1.95;0.38;;;17.80;99.90;;;;;;5030650;28;20064;-83
2022/09/29 12:19:27;;;;;;;0.93;0.30;;;17.70;99.90;;;;;;5029882;28;20037;-83
2022/09/29 12:21:56;;;;;;;1.10;0.30;;;17.50;99.90;;;;;;5030557;28;20057;-83
2022/09/29 12:24:27;;;;;;;0.45;0.30;;;17.20;99.90;;;;;;5013521;28;20103;-83
2022/09/29 12:26:55;;;;;;;1.42;0.25;;;17.10;99.90;;;;;;5030294;28;20131;-82
2022/09/29 12:29:36;;;;;;;1.30;0.30;;;16.90;99.90;;;;;;5030297;28;20410;-83
2022/09/29 12:32:28;;;;;;;0.68;0.35;;;16.70;99.90;;;;;;5030044;28;20432;-82
2022/09/29 12:35:13;;;;;;;0.47;0.25;;;16.50;99.90;;;;;;5023412;28;20095;-82
2022/09/29 12:37:53;;;;;;;0.77;0.38;;;16.40;99.90;;;;;;5030333;28;20056;-82
2022/09/29 12:40:34;;;;;;;3.67;0.30;;;16.40;99.90;;;;;;5029858;28;20052;-82
2022/09/29 12:43:26;;;;;;;2.63;0.30;;;16.30;99.90;;;;;;5030701;28;20048;-82
2022/09/29 12:46:02;;;;;;;0.32;0.20;;;16.20;99.90;;;;;;5029513;28;20468;-82
2022/09/29 12:48:48;;;;;;;0.85;0.20;;;16.10;99.90;;;;;;5029818;28;20135;-82
2022/09/29 12:51:35;;;;;;;0.95;0.38;;;16.00;99.90;;;;;;5030261;28;20052;-82
2022/09/29 12:54:17;;;;;;;1.20;0.20;;;15.90;99.90;;;;;;5029719;28;20157;-82
2022/09/29 12:56:58;;;;;;;1.08;0.20;;;15.70;99.90;;;;;;5029656;28;20089;-82
2022/09/29 12:59:37;;;;;;;0.25;0.10;;;15.60;99.90;;;;;;5029697;28;20168;-82
2022/09/29 13:02:36;;;;;;;0.13;0.00;;;15.50;99.90;;;;;;5027997;28;20049;-83
2022/09/29 13:05:11;;;;;;;0.57;0.10;;;15.40;99.90;;;;;;5029581;28;20087;-83
2022/09/29 13:08:08;;;;;;;1.05;0.20;;;15.40;99.90;;;;;;5029669;28;20045;-82
2022/09/29 13:10:53;;;;;;;0.22;0.20;;;15.40;99.90;;;;;;5029616;28;20041;-82
2022/09/29 13:13:42;;;;;;;0.43;0.20;;;15.40;99.90;;;;;;5029983;28;20052;-82
2022/09/29 13:16:16;;;;;;;2.95;0.50;;;15.40;99.90;;;;;;5029696;28;20053;-82